Time;durP1;ratioP1;P1;durP2;ratioP2;P2;SDS_P1;SDS_P2;PMS_P1;PMS_P2;Temp;Humidity;BMP_temperature;BMP_pressure;BME280_temperature;BME280_humidity;BME280_pressure;Samples;Min_cycle;Max_cycle;Signal;HPM_P1;HPM_P2
2021/03/05 00:01:00;;;;;;;7.97;2.70;;;24.20;53.70;;;;;;5047213;28;20117;-70
2021/03/05 00:03:26;;;;;;;5.93;2.15;;;24.20;53.70;;;;;;5068126;28;20387;-69
2021/03/05 00:05:53;;;;;;;7.93;2.70;;;24.10;53.70;;;;;;5065035;28;20039;-69
2021/03/05 00:08:20;;;;;;;9.40;2.65;;;24.10;53.80;;;;;;5067218;28;20037;-70
2021/03/05 00:10:47;;;;;;;7.03;2.33;;;24.10;53.80;;;;;;5068707;28;20071;-69
2021/03/05 00:13:14;;;;;;;8.25;2.22;;;24.10;53.70;;;;;;5067526;28;20021;-69
2021/03/05 00:15:44;;;;;;;7.30;2.15;;;24.10;53.80;;;;;;5068367;28;20103;-69
2021/03/05 00:18:11;;;;;;;6.78;2.05;;;24.10;53.80;;;;;;5067953;28;20028;-69
2021/03/05 00:20:41;;;;;;;7.72;2.78;;;24.10;53.80;;;;;;5068845;28;20047;-69
2021/03/05 00:23:07;;;;;;;4.28;2.03;;;24.10;53.80;;;;;;5062667;28;20040;-69
2021/03/05 00:25:34;;;;;;;4.90;1.70;;;24.00;53.70;;;;;;5069658;28;20032;-69
2021/03/05 00:28:01;;;;;;;6.15;2.10;;;24.10;53.70;;;;;;5068560;28;20051;-69
2021/03/05 00:30:28;;;;;;;6.70;1.85;;;24.10;53.80;;;;;;5068520;28;20044;-69
2021/03/05 00:32:54;;;;;;;4.43;1.65;;;24.00;53.70;;;;;;5052671;28;20070;-70
2021/03/05 00:35:22;;;;;;;4.05;1.80;;;24.00;53.70;;;;;;5066655;28;20052;-70
2021/03/05 00:37:49;;;;;;;4.43;2.03;;;24.00;53.80;;;;;;5072741;28;20051;-69
2021/03/05 00:40:17;;;;;;;7.07;1.73;;;24.00;53.90;;;;;;5068385;28;20024;-69
2021/03/05 00:42:45;;;;;;;6.00;1.85;;;24.00;54.60;;;;;;5071410;28;20021;-69
2021/03/05 00:45:14;;;;;;;5.93;2.53;;;24.00;54.00;;;;;;5071148;28;20020;-69
2021/03/05 00:47:41;;;;;;;6.88;1.58;;;24.00;54.00;;;;;;5071833;28;20024;-69
2021/03/05 00:50:09;;;;;;;8.68;2.58;;;24.00;54.00;;;;;;5069862;28;20089;-69
2021/03/05 00:52:36;;;;;;;6.63;2.30;;;23.90;53.80;;;;;;5072457;28;20013;-69
2021/03/05 00:55:03;;;;;;;5.28;2.25;;;23.90;53.80;;;;;;5072441;28;20052;-69
2021/03/05 00:57:30;;;;;;;6.13;1.70;;;23.90;53.80;;;;;;5071155;28;20020;-70
2021/03/05 00:59:56;;;;;;;4.60;1.60;;;23.90;53.80;;;;;;5070324;28;20031;-69
2021/03/05 01:02:23;;;;;;;7.82;2.47;;;23.90;54.20;;;;;;5068279;28;20102;-69
2021/03/05 01:04:49;;;;;;;6.88;1.90;;;23.90;53.80;;;;;;5072764;28;20051;-70
2021/03/05 01:07:16;;;;;;;4.78;1.90;;;23.90;53.80;;;;;;5069974;28;20030;-70
2021/03/05 01:09:42;;;;;;;7.35;1.88;;;23.90;53.90;;;;;;5072157;28;20382;-70
2021/03/05 01:12:10;;;;;;;6.30;2.22;;;23.90;53.90;;;;;;5070325;28;20079;-69
2021/03/05 01:14:36;;;;;;;7.10;2.13;;;23.80;53.90;;;;;;5070232;28;20368;-69
2021/03/05 01:17:03;;;;;;;4.65;1.70;;;23.90;54.00;;;;;;5071874;28;20021;-69
2021/03/05 01:19:30;;;;;;;7.05;3.05;;;23.90;54.00;;;;;;5071114;28;20056;-69
2021/03/05 01:21:57;;;;;;;7.25;2.60;;;23.80;54.10;;;;;;5068021;28;20025;-70
2021/03/05 01:24:23;;;;;;;5.93;2.10;;;23.80;54.20;;;;;;5070315;28;20372;-70
2021/03/05 01:26:51;;;;;;;7.88;2.30;;;23.80;54.40;;;;;;5072387;28;20060;-69
2021/03/05 01:29:17;;;;;;;5.47;2.10;;;23.80;54.70;;;;;;5071843;28;20032;-70
2021/03/05 01:31:44;;;;;;;9.57;3.00;;;23.80;54.90;;;;;;5068681;28;20108;-70
2021/03/05 01:34:10;;;;;;;9.52;2.25;;;23.80;54.90;;;;;;5071374;28;20143;-69
2021/03/05 01:36:37;;;;;;;9.25;2.53;;;23.70;54.90;;;;;;5069416;28;20539;-70
2021/03/05 01:39:04;;;;;;;9.07;2.67;;;23.70;54.80;;;;;;5070667;28;20032;-70
2021/03/05 01:41:33;;;;;;;6.97;2.47;;;23.70;54.70;;;;;;5070549;28;20092;-70
2021/03/05 01:44:00;;;;;;;10.30;3.08;;;23.70;54.50;;;;;;5071067;28;20027;-69
2021/03/05 01:46:28;;;;;;;8.77;3.97;;;23.70;54.30;;;;;;5065934;28;20036;-69
2021/03/05 01:48:55;;;;;;;9.43;3.03;;;23.70;54.20;;;;;;5069016;28;20494;-69
2021/03/05 01:51:27;;;;;;;7.97;2.72;;;23.70;54.10;;;;;;5069922;28;20103;-69
2021/03/05 01:53:54;;;;;;;7.68;2.88;;;23.60;54.00;;;;;;5067721;28;20353;-69
2021/03/05 01:56:34;;;;;;;6.43;2.42;;;23.60;53.90;;;;;;5069491;28;20380;-69
2021/03/05 01:59:01;;;;;;;5.90;2.17;;;23.60;53.80;;;;;;5069139;28;20110;-69
2021/03/05 02:01:29;;;;;;;7.28;2.47;;;23.60;53.70;;;;;;5051628;28;20094;-70
2021/03/05 02:03:55;;;;;;;4.78;2.42;;;23.60;53.70;;;;;;5071717;28;20035;-70
2021/03/05 02:06:22;;;;;;;5.80;2.00;;;23.60;53.70;;;;;;5069744;28;20020;-69
2021/03/05 02:08:49;;;;;;;5.47;1.63;;;23.60;53.70;;;;;;5070462;28;20062;-69
2021/03/05 02:11:24;;;;;;;3.92;1.52;;;23.60;53.70;;;;;;5069634;28;20062;-69
2021/03/05 02:13:53;;;;;;;5.07;1.65;;;23.60;53.60;;;;;;5052845;28;20051;-70
2021/03/05 02:16:52;;;;;;;4.13;1.50;;;23.60;53.60;;;;;;5067499;28;20024;-69
2021/03/05 02:19:38;;;;;;;3.70;1.73;;;23.60;53.50;;;;;;5063150;28;20451;-69
2021/03/05 02:22:49;;;;;;;4.28;2.00;;;23.50;53.50;;;;;;5069665;28;20102;-69
2021/03/05 02:25:37;;;;;;;7.50;2.20;;;23.50;53.80;;;;;;5042223;28;20045;-69
2021/03/05 02:28:31;;;;;;;5.25;2.00;;;23.50;54.10;;;;;;5067651;28;20105;-69
2021/03/05 02:31:39;;;;;;;4.85;1.90;;;23.50;54.30;;;;;;5068971;28;20544;-69
2021/03/05 02:34:20;;;;;;;7.47;2.28;;;23.50;54.40;;;;;;5069374;28;20723;-70
2021/03/05 02:36:57;;;;;;;7.18;2.28;;;23.50;54.30;;;;;;5069317;28;20035;-69
2021/03/05 02:39:51;;;;;;;5.20;1.88;;;23.50;54.30;;;;;;5069978;28;20494;-70
2021/03/05 02:42:30;;;;;;;5.95;1.65;;;23.50;54.20;;;;;;5064780;28;20056;-70
2021/03/05 02:45:06;;;;;;;7.10;1.95;;;23.50;54.20;;;;;;5065732;28;20035;-68
2021/03/05 02:47:34;;;;;;;4.57;1.30;;;23.40;54.10;;;;;;5070300;28;20029;-69
2021/03/05 02:50:02;;;;;;;7.82;1.88;;;23.40;54.10;;;;;;5068290;28;20065;-69
2021/03/05 02:52:32;;;;;;;5.22;1.38;;;23.40;54.20;;;;;;5067936;28;20021;-69
2021/03/05 02:55:02;;;;;;;2.53;1.25;;;23.40;54.30;;;;;;5068375;28;20090;-69
2021/03/05 02:57:31;;;;;;;4.10;1.73;;;23.40;54.40;;;;;;5067546;28;20446;-69
2021/03/05 02:59:59;;;;;;;6.40;1.60;;;23.40;54.50;;;;;;5069015;28;20031;-70
2021/03/05 03:02:27;;;;;;;5.45;1.33;;;23.40;55.20;;;;;;5067585;28;20036;-70
2021/03/05 03:04:56;;;;;;;6.85;1.70;;;23.30;54.60;;;;;;5069456;28;20020;-68
2021/03/05 03:07:25;;;;;;;6.18;1.98;;;23.30;54.70;;;;;;5065085;28;20017;-69
2021/03/05 03:09:52;;;;;;;4.20;1.50;;;23.30;54.90;;;;;;5066191;28;20057;-68
2021/03/05 03:12:20;;;;;;;4.95;1.48;;;23.30;54.90;;;;;;5069093;28;20111;-68
2021/03/05 03:14:49;;;;;;;4.03;1.50;;;23.30;55.00;;;;;;5047058;28;20387;-68
2021/03/05 03:17:16;;;;;;;5.47;1.10;;;23.30;55.00;;;;;;5068980;28;20012;-69
2021/03/05 03:19:48;;;;;;;3.17;1.50;;;23.30;55.50;;;;;;5069098;28;20036;-68
2021/03/05 03:22:15;;;;;;;6.65;2.55;;;23.30;54.90;;;;;;5049747;28;20462;-69
2021/03/05 03:24:41;;;;;;;8.02;1.90;;;23.30;54.90;;;;;;5067927;28;20537;-69
2021/03/05 03:27:09;;;;;;;9.10;1.90;;;23.30;54.90;;;;;;5069438;28;20069;-69
2021/03/05 03:29:36;;;;;;;6.28;1.80;;;23.30;55.00;;;;;;5068243;28;20021;-69
2021/03/05 03:32:03;;;;;;;3.55;1.58;;;23.30;55.00;;;;;;5065039;28;20107;-69
2021/03/05 03:34:30;;;;;;;5.90;1.35;;;23.20;55.10;;;;;;5067444;28;20051;-69
2021/03/05 03:36:57;;;;;;;8.57;2.03;;;23.20;55.20;;;;;;5069586;28;20036;-68
2021/03/05 03:39:24;;;;;;;8.73;2.00;;;23.20;55.30;;;;;;5062619;28;20020;-69
2021/03/05 03:41:53;;;;;;;6.05;2.42;;;23.20;55.30;;;;;;5068590;28;20153;-70
2021/03/05 03:44:20;;;;;;;6.60;1.73;;;23.20;55.30;;;;;;5072813;28;20028;-69
2021/03/05 03:46:48;;;;;;;6.43;2.22;;;23.20;55.30;;;;;;5070496;28;20573;-68
2021/03/05 03:49:25;;;;;;;5.40;2.50;;;23.20;55.30;;;;;;5065078;28;20020;-69
2021/03/05 03:52:02;;;;;;;5.75;2.47;;;23.20;55.40;;;;;;5064110;28;20111;-69
2021/03/05 03:54:31;;;;;;;4.32;2.00;;;23.10;55.40;;;;;;5064337;28;20410;-69
2021/03/05 03:57:01;;;;;;;8.40;2.22;;;23.10;55.40;;;;;;5068464;28;20078;-67
2021/03/05 03:59:31;;;;;;;7.40;2.15;;;23.10;55.40;;;;;;5063874;28;20060;-69
2021/03/05 04:01:58;;;;;;;6.35;1.90;;;23.10;55.50;;;;;;5068939;28;20123;-68
2021/03/05 04:04:27;;;;;;;4.90;1.45;;;23.10;55.60;;;;;;5071422;28;20341;-69
2021/03/05 04:06:55;;;;;;;7.03;1.77;;;23.10;55.70;;;;;;5070185;28;20048;-68
2021/03/05 04:09:21;;;;;;;7.30;1.73;;;23.10;55.90;;;;;;5073369;28;20552;-70
2021/03/05 04:11:48;;;;;;;6.07;2.47;;;23.10;56.00;;;;;;5073414;28;20919;-76
2021/03/05 04:14:15;;;;;;;7.30;5.32;;;23.10;56.00;;;;;;5072950;28;20021;-72
2021/03/05 04:16:42;;;;;;;13.48;9.85;;;23.10;56.10;;;;;;5071105;28;20501;-69
2021/03/05 04:19:10;;;;;;;11.10;7.53;;;23.00;56.30;;;;;;5072256;28;20499;-71
2021/03/05 04:21:37;;;;;;;10.55;5.78;;;23.00;56.40;;;;;;5069786;28;20036;-73
2021/03/05 04:24:04;;;;;;;8.32;3.72;;;23.00;56.40;;;;;;5071574;28;20025;-66
2021/03/05 04:26:31;;;;;;;8.00;3.65;;;23.00;56.50;;;;;;5071249;28;20543;-70
2021/03/05 04:28:58;;;;;;;9.20;4.47;;;23.00;56.50;;;;;;5071949;28;20028;-70
2021/03/05 04:31:24;;;;;;;10.10;7.25;;;23.00;56.60;;;;;;5072351;28;20033;-73
2021/03/05 04:33:51;;;;;;;20.52;10.30;;;23.00;56.70;;;;;;5072648;28;20043;-70
2021/03/05 04:36:18;;;;;;;10.32;6.50;;;23.00;56.80;;;;;;5071583;28;20544;-71
2021/03/05 04:38:44;;;;;;;10.73;5.97;;;23.00;56.80;;;;;;5072496;28;20376;-71
2021/03/05 04:41:11;;;;;;;11.10;4.00;;;23.00;56.80;;;;;;5071391;28;20016;-69
2021/03/05 04:43:38;;;;;;;7.25;3.20;;;22.90;56.90;;;;;;5071127;28;20032;-71
2021/03/05 04:46:04;;;;;;;9.70;3.20;;;23.00;57.10;;;;;;5068738;28;20032;-71
2021/03/05 04:48:31;;;;;;;9.48;3.05;;;23.00;57.10;;;;;;5072677;28;20491;-71
2021/03/05 04:50:57;;;;;;;8.40;2.83;;;22.90;57.20;;;;;;5071379;28;20023;-72
2021/03/05 04:53:24;;;;;;;5.68;2.00;;;22.90;57.30;;;;;;5071859;28;20032;-70
2021/03/05 04:55:50;;;;;;;8.13;2.13;;;22.90;57.30;;;;;;5071707;28;20020;-73
2021/03/05 04:58:17;;;;;;;5.90;2.03;;;22.90;57.40;;;;;;5070594;28;20039;-69
2021/03/05 05:00:43;;;;;;;4.95;2.17;;;22.90;57.40;;;;;;5071778;28;20025;-70
2021/03/05 05:03:10;;;;;;;3.75;1.63;;;22.90;57.50;;;;;;5070350;28;20037;-70
2021/03/05 05:05:39;;;;;;;5.57;1.70;;;22.90;57.50;;;;;;5072541;28;20086;-70
2021/03/05 05:08:07;;;;;;;4.63;1.83;;;22.90;57.50;;;;;;5070779;28;20551;-71
2021/03/05 05:10:34;;;;;;;6.25;2.13;;;22.90;57.40;;;;;;5072565;28;20017;-70
2021/03/05 05:13:00;;;;;;;5.70;2.63;;;22.90;57.50;;;;;;5068014;28;20025;-70
2021/03/05 05:15:27;;;;;;;6.82;3.22;;;22.90;57.50;;;;;;5069958;28;20039;-71
2021/03/05 05:17:53;;;;;;;4.00;2.13;;;22.90;57.50;;;;;;5070042;28;20016;-70
2021/03/05 05:20:20;;;;;;;9.73;2.38;;;22.90;57.50;;;;;;5068383;28;20095;-70
2021/03/05 05:22:47;;;;;;;6.40;2.30;;;22.80;57.50;;;;;;5069280;28;20057;-70
2021/03/05 05:25:13;;;;;;;8.00;2.05;;;22.90;57.60;;;;;;5071438;28;20039;-70
2021/03/05 05:27:40;;;;;;;7.53;2.63;;;22.80;57.70;;;;;;5071148;28;20434;-70
2021/03/05 05:30:07;;;;;;;9.15;4.20;;;22.80;58.40;;;;;;5069603;28;20020;-70
2021/03/05 05:32:33;;;;;;;5.93;2.15;;;22.80;58.00;;;;;;5072172;28;20013;-70
2021/03/05 05:35:00;;;;;;;7.18;2.05;;;22.80;58.00;;;;;;5070517;28;20016;-70
2021/03/05 05:37:26;;;;;;;9.23;2.13;;;22.80;58.60;;;;;;5069108;28;20021;-70
2021/03/05 05:39:53;;;;;;;5.50;2.17;;;22.80;58.00;;;;;;5072122;28;20497;-71
2021/03/05 05:42:19;;;;;;;7.22;2.75;;;22.80;57.90;;;;;;5068153;28;20036;-70
2021/03/05 05:44:49;;;;;;;7.47;2.15;;;22.80;57.90;;;;;;5070843;28;20104;-70
2021/03/05 05:47:17;;;;;;;10.32;2.42;;;22.80;57.80;;;;;;5068188;28;20023;-70
2021/03/05 05:49:44;;;;;;;9.50;2.42;;;22.80;57.70;;;;;;5071170;28;20030;-69
2021/03/05 05:52:21;;;;;;;8.70;3.35;;;22.80;57.70;;;;;;5070551;28;20021;-70
2021/03/05 05:54:49;;;;;;;9.07;2.30;;;22.90;57.70;;;;;;5071105;28;20016;-69
2021/03/05 05:57:16;;;;;;;7.13;2.15;;;22.80;57.50;;;;;;5071134;28;20039;-69
2021/03/05 05:59:43;;;;;;;9.13;3.58;;;22.80;57.30;;;;;;5070470;28;20024;-70
2021/03/05 06:02:11;;;;;;;9.05;2.35;;;22.90;57.20;;;;;;5072109;28;20069;-70
2021/03/05 06:04:38;;;;;;;12.38;2.42;;;22.80;57.00;;;;;;5068427;28;20365;-70
2021/03/05 06:07:05;;;;;;;6.55;1.90;;;22.80;56.80;;;;;;5066988;28;20020;-70
2021/03/05 06:09:34;;;;;;;8.80;2.50;;;22.80;56.60;;;;;;5071062;28;20070;-70
2021/03/05 06:12:12;;;;;;;13.10;3.40;;;22.80;56.50;;;;;;5070251;28;20539;-69
2021/03/05 06:14:40;;;;;;;7.65;2.67;;;22.90;56.30;;;;;;5068936;28;20028;-70
2021/03/05 06:17:07;;;;;;;6.10;3.22;;;22.90;56.20;;;;;;5069289;28;20052;-70
2021/03/05 06:19:34;;;;;;;7.05;2.80;;;22.90;56.20;;;;;;5071303;28;20044;-70
2021/03/05 06:22:01;;;;;;;7.45;3.78;;;22.90;56.20;;;;;;5068462;28;20037;-70
2021/03/05 06:24:28;;;;;;;8.02;2.88;;;22.90;56.20;;;;;;5067526;28;20048;-70
2021/03/05 06:26:59;;;;;;;7.35;3.08;;;23.00;56.30;;;;;;5070401;28;20463;-70
2021/03/05 06:29:41;;;;;;;6.30;2.45;;;23.00;56.30;;;;;;5069382;28;20385;-70
2021/03/05 06:32:08;;;;;;;12.05;2.85;;;23.00;56.30;;;;;;5067726;28;20016;-69
2021/03/05 06:34:47;;;;;;;9.23;2.30;;;23.00;56.40;;;;;;5069825;28;20106;-70
2021/03/05 06:37:15;;;;;;;8.70;2.38;;;23.10;56.50;;;;;;5069839;28;20035;-71
2021/03/05 06:39:42;;;;;;;4.57;1.88;;;23.10;56.50;;;;;;5070024;28;20391;-71
2021/03/05 06:42:15;;;;;;;8.45;2.08;;;23.10;56.50;;;;;;5067771;28;20033;-70
2021/03/05 06:44:45;;;;;;;8.05;2.40;;;23.10;56.50;;;;;;5068503;28;20029;-70
2021/03/05 06:47:25;;;;;;;7.43;1.73;;;23.10;56.50;;;;;;5047389;28;20028;-70
2021/03/05 06:49:51;;;;;;;5.38;1.70;;;23.10;56.50;;;;;;5070846;28;20035;-70
2021/03/05 06:52:19;;;;;;;8.75;2.20;;;23.20;56.40;;;;;;5068209;28;20031;-70
2021/03/05 06:54:46;;;;;;;5.57;1.40;;;23.30;56.30;;;;;;5068864;28;20020;-70
2021/03/05 06:57:14;;;;;;;4.70;1.10;;;23.30;56.10;;;;;;5070022;28;20027;-70
2021/03/05 06:59:45;;;;;;;4.00;1.25;;;23.30;56.00;;;;;;5066762;28;20025;-70
2021/03/05 07:02:15;;;;;;;4.18;1.58;;;23.30;55.90;;;;;;5067994;28;20032;-70
2021/03/05 07:04:49;;;;;;;3.97;1.73;;;23.40;55.90;;;;;;5068172;28;20036;-70
2021/03/05 07:07:20;;;;;;;8.18;3.58;;;23.40;55.80;;;;;;5069346;28;20020;-70
2021/03/05 07:09:50;;;;;;;4.30;1.67;;;23.40;55.50;;;;;;5068588;28;20059;-71
2021/03/05 07:12:20;;;;;;;8.85;2.45;;;23.50;55.40;;;;;;5068855;28;20024;-70
2021/03/05 07:15:09;;;;;;;2.92;1.23;;;23.50;55.30;;;;;;5069343;28;20119;-71
2021/03/05 07:17:37;;;;;;;3.85;1.63;;;23.60;55.20;;;;;;5068210;28;20048;-70
2021/03/05 07:20:05;;;;;;;4.65;1.55;;;23.60;55.00;;;;;;5069782;28;20061;-71
2021/03/05 07:22:32;;;;;;;4.60;1.48;;;23.60;55.00;;;;;;5066533;28;20194;-71
2021/03/05 07:25:01;;;;;;;5.28;1.75;;;23.70;54.80;;;;;;5068913;28;20028;-70
2021/03/05 07:27:29;;;;;;;5.00;1.40;;;23.70;54.70;;;;;;5068589;28;20033;-71
2021/03/05 07:30:01;;;;;;;6.80;2.60;;;23.70;54.60;;;;;;5066619;28;20016;-70
2021/03/05 07:32:37;;;;;;;6.75;2.08;;;23.80;54.40;;;;;;5069202;28;20032;-70
2021/03/05 07:35:17;;;;;;;4.85;1.30;;;23.80;54.30;;;;;;5065271;28;20040;-70
2021/03/05 07:37:53;;;;;;;4.00;1.30;;;23.90;54.20;;;;;;5074236;28;20021;-70
2021/03/05 07:40:20;;;;;;;4.35;1.58;;;23.90;54.10;;;;;;5072097;28;20602;-71
2021/03/05 07:42:47;;;;;;;4.70;1.45;;;24.00;54.00;;;;;;5073081;28;20109;-70
2021/03/05 07:45:15;;;;;;;3.63;1.13;;;24.00;53.80;;;;;;5072119;28;20597;-70
2021/03/05 07:47:45;;;;;;;3.28;1.00;;;24.00;53.60;;;;;;5071456;28;20409;-71
2021/03/05 07:50:14;;;;;;;9.27;1.63;;;24.10;53.70;;;;;;5071163;28;20418;-70
2021/03/05 07:52:41;;;;;;;2.75;1.00;;;24.10;53.50;;;;;;5072100;28;20055;-72
2021/03/05 07:55:09;;;;;;;4.65;1.48;;;24.10;53.30;;;;;;5072582;28;20423;-70
2021/03/05 07:57:35;;;;;;;3.95;1.00;;;24.20;53.20;;;;;;5073042;28;20086;-71
2021/03/05 08:00:02;;;;;;;5.60;1.25;;;24.20;52.80;;;;;;5071101;28;20066;-71
2021/03/05 08:02:59;;;;;;;5.18;1.17;;;24.20;52.50;;;;;;5071919;28;20068;-71
2021/03/05 08:05:34;;;;;;;7.68;1.27;;;24.30;52.00;;;;;;5060167;28;20039;-71
2021/03/05 08:08:07;;;;;;;6.28;2.00;;;24.30;51.80;;;;;;5071921;28;20032;-70
2021/03/05 08:10:39;;;;;;;4.55;1.83;;;24.40;51.60;;;;;;5069381;28;20062;-70
2021/03/05 08:13:35;;;;;;;3.22;1.27;;;24.40;51.40;;;;;;5071450;28;20051;-71
2021/03/05 08:16:29;;;;;;;3.03;1.00;;;24.50;51.10;;;;;;5062785;28;20036;-70
2021/03/05 08:19:05;;;;;;;4.18;1.17;;;24.60;51.00;;;;;;5070338;28;20043;-70
2021/03/05 08:21:54;;;;;;;4.75;1.27;;;24.60;50.80;;;;;;5070079;28;20039;-71
2021/03/05 08:24:26;;;;;;;5.93;1.20;;;24.60;50.60;;;;;;5072263;28;20029;-71
2021/03/05 08:27:05;;;;;;;3.88;1.27;;;24.70;50.60;;;;;;5069222;28;20028;-71
2021/03/05 08:29:53;;;;;;;4.95;1.30;;;24.70;50.30;;;;;;5072907;28;20036;-70
2021/03/05 08:32:34;;;;;;;4.78;1.10;;;24.80;49.90;;;;;;5072190;28;20081;-71
2021/03/05 08:35:10;;;;;;;3.63;1.02;;;24.90;49.70;;;;;;5069827;28;20028;-71
2021/03/05 08:37:39;;;;;;;2.83;1.08;;;24.90;49.60;;;;;;5073132;28;20020;-71
2021/03/05 08:40:17;;;;;;;2.08;0.77;;;25.00;49.40;;;;;;5069754;28;20051;-71
2021/03/05 08:42:44;;;;;;;3.33;1.30;;;25.00;49.20;;;;;;5071603;28;21572;-71
2021/03/05 08:45:19;;;;;;;6.72;1.17;;;25.10;49.10;;;;;;5068790;28;20431;-71
2021/03/05 08:47:46;;;;;;;;;;;25.10;48.80;;;;;;5070422;28;20032;-71
2021/03/05 08:50:15;;;;;;;3.25;1.20;;;25.20;48.90;;;;;;5072085;28;19915;-71
2021/03/05 08:52:44;;;;;;;3.38;1.15;;;25.30;48.40;;;;;;5070715;28;20029;-71
2021/03/05 08:55:11;;;;;;;3.33;1.15;;;25.30;48.10;;;;;;5067551;28;20885;-71
2021/03/05 08:57:46;;;;;;;3.20;1.23;;;25.40;47.80;;;;;;5070626;28;20025;-71
2021/03/05 09:00:15;;;;;;;3.80;1.27;;;25.40;47.60;;;;;;5069673;28;20029;-71
2021/03/05 09:02:47;;;;;;;3.90;1.55;;;25.50;47.60;;;;;;5070167;28;20053;-71
2021/03/05 09:05:23;;;;;;;6.30;2.00;;;25.60;47.50;;;;;;5048681;28;20017;-71
2021/03/05 09:07:55;;;;;;;6.72;1.73;;;25.60;47.30;;;;;;5072743;28;20017;-71
2021/03/05 09:10:36;;;;;;;4.53;1.20;;;25.70;47.10;;;;;;5070468;28;20021;-71
2021/03/05 09:13:03;;;;;;;5.32;1.50;;;25.70;47.00;;;;;;5071118;28;20467;-71
2021/03/05 09:15:58;;;;;;;3.53;1.52;;;25.80;46.90;;;;;;5071869;28;20044;-71
2021/03/05 09:18:25;;;;;;;6.55;2.03;;;25.80;46.60;;;;;;5067635;28;20044;-71
2021/03/05 09:20:56;;;;;;;3.53;1.45;;;25.80;46.50;;;;;;5070562;28;20037;-71
2021/03/05 09:23:34;;;;;;;8.70;2.10;;;25.90;46.40;;;;;;5070001;28;20434;-71
2021/03/05 09:26:23;;;;;;;6.97;2.63;;;25.90;46.10;;;;;;5068324;28;20033;-71
2021/03/05 09:29:02;;;;;;;8.88;1.85;;;25.90;46.20;;;;;;5070174;28;20094;-71
2021/03/05 09:31:29;;;;;;;4.60;1.27;;;26.00;46.20;;;;;;5068997;28;20437;-71
2021/03/05 09:34:00;;;;;;;8.55;1.90;;;26.00;45.90;;;;;;5071012;28;20494;-71
2021/03/05 09:36:27;;;;;;;9.95;2.22;;;26.10;45.70;;;;;;5070748;28;20107;-71
2021/03/05 09:39:03;;;;;;;7.88;1.30;;;26.10;45.80;;;;;;5071653;28;20517;-71
2021/03/05 09:41:31;;;;;;;3.83;1.50;;;26.10;45.50;;;;;;5070945;28;20159;-71
2021/03/05 09:44:09;;;;;;;4.80;1.58;;;26.10;45.20;;;;;;5069537;28;20081;-71
2021/03/05 09:46:38;;;;;;;4.97;1.38;;;26.10;45.10;;;;;;5071184;28;20025;-71
2021/03/05 09:49:31;;;;;;;7.72;1.73;;;26.20;45.00;;;;;;5067880;28;20111;-71
2021/03/05 09:51:57;;;;;;;6.90;2.65;;;26.30;45.20;;;;;;5069910;28;20038;-71
2021/03/05 09:54:42;;;;;;;2.80;1.20;;;26.30;45.00;;;;;;5071875;28;20101;-71
2021/03/05 09:57:48;;;;;;;5.18;1.42;;;26.40;45.10;;;;;;5069355;28;20029;-71
2021/03/05 10:01:10;;;;;;;6.82;1.52;;;26.40;44.90;;;;;;5068852;28;20070;-71
2021/03/05 10:04:16;;;;;;;9.98;1.58;;;26.50;44.40;;;;;;5070243;28;20036;-71
2021/03/05 10:07:37;;;;;;;8.65;1.67;;;26.60;44.50;;;;;;5067446;28;20492;-71
2021/03/05 10:10:46;;;;;;;4.88;1.65;;;26.60;44.20;;;;;;5067070;28;20059;-71
2021/03/05 10:13:45;;;;;;;4.35;1.33;;;26.70;44.40;;;;;;5070376;28;20021;-71
2021/03/05 10:16:51;;;;;;;3.53;1.58;;;26.80;44.10;;;;;;5069540;28;20028;-71
2021/03/05 10:19:57;;;;;;;5.70;2.15;;;26.90;43.70;;;;;;5064804;28;20055;-71
2021/03/05 10:23:03;;;;;;;8.88;1.13;;;27.00;43.40;;;;;;5069833;28;20032;-71
2021/03/05 10:26:09;;;;;;;9.75;1.80;;;27.00;44.10;;;;;;5070305;28;20024;-71
2021/03/05 10:29:15;;;;;;;8.40;1.80;;;27.00;43.20;;;;;;5070290;28;20375;-71
2021/03/05 10:32:01;;;;;;;3.03;1.23;;;27.20;43.10;;;;;;5068489;28;20650;-71
2021/03/05 10:35:09;;;;;;;2.17;1.20;;;27.20;42.90;;;;;;5068241;28;20478;-71
2021/03/05 10:38:18;;;;;;;5.32;2.28;;;27.30;42.80;;;;;;5071298;28;20028;-71
2021/03/05 10:41:24;;;;;;;5.05;1.65;;;27.30;42.40;;;;;;5068234;28;20032;-71
2021/03/05 10:44:30;;;;;;;7.88;1.90;;;27.40;42.30;;;;;;5067777;28;20020;-71
2021/03/05 10:47:36;;;;;;;6.00;1.95;;;27.40;41.80;;;;;;5070174;28;20444;-71
2021/03/05 10:50:42;;;;;;;3.30;1.40;;;27.50;41.80;;;;;;5068425;28;20111;-71
2021/03/05 10:53:48;;;;;;;5.65;1.67;;;27.50;41.70;;;;;;5067925;28;20077;-71
2021/03/05 10:56:54;;;;;;;4.63;1.77;;;27.60;41.50;;;;;;5066560;28;20316;-70
2021/03/05 11:00:00;;;;;;;5.15;1.55;;;27.60;41.40;;;;;;5066935;28;20013;-70
2021/03/05 11:03:06;;;;;;;5.97;1.50;;;27.70;41.10;;;;;;5068008;28;20040;-71
2021/03/05 11:06:12;;;;;;;5.53;1.83;;;27.70;41.10;;;;;;5067413;28;20012;-70
2021/03/05 11:09:18;;;;;;;6.50;1.70;;;27.80;41.20;;;;;;5068564;28;20129;-70
2021/03/05 11:12:25;;;;;;;6.18;1.70;;;27.90;40.90;;;;;;5069072;28;20040;-70
2021/03/05 11:15:31;;;;;;;4.50;1.67;;;28.00;41.00;;;;;;5067848;28;20016;-70
2021/03/05 11:18:37;;;;;;;4.18;1.70;;;28.10;41.00;;;;;;5067800;28;20032;-70
2021/03/05 11:21:44;;;;;;;7.85;2.15;;;28.10;41.70;;;;;;5068343;28;20036;-70
2021/03/05 11:24:50;;;;;;;7.55;1.83;;;28.20;41.20;;;;;;5065432;28;20061;-70
2021/03/05 11:27:56;;;;;;;6.85;2.45;;;28.30;41.40;;;;;;5068872;28;20063;-71
2021/03/05 11:31:02;;;;;;;8.00;1.90;;;28.40;41.60;;;;;;5068873;28;20356;-71
2021/03/05 11:34:08;;;;;;;8.55;1.77;;;28.50;41.60;;;;;;5070072;28;20058;-72
2021/03/05 11:37:15;;;;;;;5.60;1.70;;;28.60;41.80;;;;;;5066397;28;20052;-72
2021/03/05 11:40:21;;;;;;;6.97;1.90;;;28.70;41.90;;;;;;5068011;28;20016;-71
2021/03/05 11:43:27;;;;;;;6.25;2.17;;;28.80;41.80;;;;;;5069353;28;20044;-71
2021/03/05 11:46:33;;;;;;;7.15;2.95;;;28.90;41.80;;;;;;5065032;28;20020;-72
2021/03/05 11:49:39;;;;;;;4.07;1.95;;;29.00;41.70;;;;;;5066005;28;20032;-72
2021/03/05 11:52:45;;;;;;;4.85;1.55;;;29.10;41.70;;;;;;5066672;28;20025;-71
2021/03/05 11:55:52;;;;;;;3.05;1.25;;;29.10;41.70;;;;;;5067984;28;20107;-72
2021/03/05 11:58:58;;;;;;;6.50;1.80;;;29.20;41.80;;;;;;5066154;28;20032;-71
2021/03/05 12:02:04;;;;;;;4.40;1.67;;;29.20;41.80;;;;;;5066955;28;20020;-72
2021/03/05 12:05:10;;;;;;;7.05;1.80;;;29.30;41.90;;;;;;5066751;28;20028;-71
2021/03/05 12:08:16;;;;;;;2.72;1.55;;;29.30;42.00;;;;;;5066244;28;20087;-71
2021/03/05 12:11:22;;;;;;;4.30;1.83;;;29.40;42.00;;;;;;5065777;28;20040;-72
2021/03/05 12:14:28;;;;;;;3.15;1.33;;;29.40;41.70;;;;;;5067604;28;20064;-72
2021/03/05 12:17:34;;;;;;;3.53;1.67;;;29.40;41.90;;;;;;5069189;28;20028;-72
2021/03/05 12:20:40;;;;;;;4.20;1.48;;;29.50;42.00;;;;;;5068565;28;20059;-71
2021/03/05 12:23:46;;;;;;;6.22;2.28;;;29.50;42.10;;;;;;5070387;28;20120;-71
2021/03/05 12:26:53;;;;;;;4.30;1.55;;;29.50;42.10;;;;;;5069951;28;20017;-71
2021/03/05 12:29:59;;;;;;;3.45;1.05;;;29.40;42.00;;;;;;5071823;28;20028;-72
2021/03/05 12:33:05;;;;;;;7.43;1.73;;;29.40;42.10;;;;;;5070426;28;20028;-72
2021/03/05 12:36:11;;;;;;;5.53;1.30;;;29.50;42.30;;;;;;5072692;28;20028;-71
2021/03/05 12:39:17;;;;;;;3.20;1.45;;;29.50;42.20;;;;;;5071949;28;20410;-71
2021/03/05 12:42:23;;;;;;;6.47;1.88;;;29.60;42.20;;;;;;5069735;28;20032;-71
2021/03/05 12:45:30;;;;;;;4.60;1.55;;;29.60;42.00;;;;;;5071910;28;20016;-71
2021/03/05 12:48:36;;;;;;;3.63;1.33;;;29.60;42.70;;;;;;5071084;28;20027;-71
2021/03/05 12:51:42;;;;;;;2.15;1.60;;;29.60;42.10;;;;;;5070000;28;20028;-72
2021/03/05 12:54:48;;;;;;;4.28;1.45;;;29.60;42.10;;;;;;5071497;28;20079;-71
2021/03/05 12:57:54;;;;;;;3.92;1.90;;;29.70;42.20;;;;;;5070129;28;20044;-72
2021/03/05 13:01:00;;;;;;;7.35;2.05;;;29.70;42.00;;;;;;5069230;28;20333;-72
2021/03/05 13:04:06;;;;;;;1.98;1.30;;;29.80;42.00;;;;;;5070507;28;20037;-71
2021/03/05 13:07:12;;;;;;;5.22;1.50;;;29.80;42.00;;;;;;5069977;28;20036;-71
2021/03/05 13:10:18;;;;;;;2.83;1.38;;;29.80;42.10;;;;;;5069975;28;20021;-71
2021/03/05 13:13:25;;;;;;;3.10;1.05;;;29.80;42.10;;;;;;5072306;28;20565;-70
2021/03/05 13:16:31;;;;;;;3.58;1.48;;;29.80;42.40;;;;;;5072375;28;20046;-70
2021/03/05 13:19:37;;;;;;;9.27;2.03;;;29.80;42.40;;;;;;5070997;28;20041;-71
2021/03/05 13:22:43;;;;;;;9.80;1.80;;;29.80;42.30;;;;;;5070154;28;20071;-70
2021/03/05 13:25:49;;;;;;;6.15;1.58;;;29.80;42.50;;;;;;5068809;28;20058;-71
2021/03/05 13:28:55;;;;;;;4.45;1.58;;;29.70;43.00;;;;;;5070741;28;20124;-71
2021/03/05 13:32:01;;;;;;;5.30;1.30;;;29.70;43.10;;;;;;5068915;28;20035;-71
2021/03/05 13:35:10;;;;;;;4.85;1.63;;;29.70;43.20;;;;;;5068285;28;20548;-70
2021/03/05 13:38:16;;;;;;;3.33;1.48;;;29.70;43.00;;;;;;5067728;28;20098;-70
2021/03/05 13:41:22;;;;;;;7.25;1.13;;;29.70;43.10;;;;;;5069325;28;20020;-70
2021/03/05 13:44:28;;;;;;;6.80;2.25;;;29.70;43.20;;;;;;5070139;28;20028;-71
2021/03/05 13:47:34;;;;;;;5.00;1.17;;;29.70;43.10;;;;;;5065132;28;20056;-71